Time;durP1;ratioP1;P1;durP2;ratioP2;P2;SDS_P1;SDS_P2;PMS_P1;PMS_P2;Temp;Humidity;BMP_temperature;BMP_pressure;BME280_temperature;BME280_humidity;BME280_pressure;Samples;Min_cycle;Max_cycle;Signal;HPM_P1;HPM_P2
2021/08/19 00:02:12;;;;;;;3.08;1.30;;;;;;;;;;5021991;28;20065;-73
2021/08/19 00:04:39;;;;;;;2.42;1.20;;;;;;;;;;5023903;28;20065;-75
2021/08/19 00:07:05;;;;;;;3.08;1.10;;;;;;;;;;5024718;28;20076;-75
2021/08/19 00:09:32;;;;;;;5.07;1.30;;;;;;;;;;5023030;28;20112;-75
2021/08/19 00:11:59;;;;;;;4.70;1.30;;;;;;;;;;5016582;28;20060;-75
2021/08/19 00:14:26;;;;;;;2.30;1.10;;;;;;;;;;5033183;28;20103;-75
2021/08/19 00:16:52;;;;;;;3.15;1.17;;;;;;;;;;5026871;28;20508;-75
2021/08/19 00:19:18;;;;;;;3.38;1.30;;;;;;;;;;5021767;28;20111;-73
2021/08/19 00:21:45;;;;;;;3.85;1.30;;;;;;;;;;5022243;28;20076;-74
2021/08/19 00:24:11;;;;;;;2.90;1.30;;;;;;;;;;5021284;28;20045;-75
2021/08/19 00:26:38;;;;;;;2.67;1.33;;;;;;;;;;5034336;28;20136;-75
2021/08/19 00:29:04;;;;;;;2.80;1.10;;;;;;;;;;5017061;28;20062;-74
2021/08/19 00:31:30;;;;;;;2.78;0.98;;;;;;;;;;5032298;28;20060;-76
2021/08/19 00:33:57;;;;;;;4.57;1.30;;;;;;;;;;5013793;28;20084;-74
2021/08/19 00:36:23;;;;;;;2.33;0.93;;;;;;;;;;5019837;28;20060;-74
2021/08/19 00:38:50;;;;;;;2.05;0.90;;;;;;;;;;5022408;28;20068;-75
2021/08/19 00:41:16;;;;;;;2.85;1.08;;;;;;;;;;5009613;28;20056;-74
2021/08/19 00:43:42;;;;;;;2.80;1.10;;;;;;;;;;5028681;28;20764;-73
2021/08/19 00:46:25;;;;;;;3.60;1.00;;;;;;;;;;5022749;28;22512;-76
2021/08/19 00:48:54;;;;;;;2.97;1.20;;;;;;;;;;5030121;28;20076;-75
2021/08/19 00:51:20;;;;;;;2.83;1.27;;;;;;;;;;5020246;28;20519;-74
2021/08/19 00:53:47;;;;;;;2.30;1.13;;;;;;;;;;5015708;28;20096;-74
2021/08/19 00:56:13;;;;;;;3.00;1.17;;;;;;;;;;5013880;28;20092;-74
2021/08/19 00:58:41;;;;;;;2.90;1.00;;;;;;;;;;5017855;28;20064;-73
2021/08/19 01:01:09;;;;;;;3.00;1.00;;;;;;;;;;5027668;28;20065;-74
2021/08/19 01:03:35;;;;;;;2.28;1.00;;;;;;;;;;5025548;28;20057;-73
2021/08/19 01:06:01;;;;;;;1.95;1.00;;;;;;;;;;5015383;28;20110;-75
2021/08/19 01:08:28;;;;;;;3.17;1.17;;;;;;;;;;5018256;28;20084;-73
2021/08/19 01:10:55;;;;;;;1.63;0.82;;;;;;;;;;5013170;28;20073;-75
2021/08/19 01:13:21;;;;;;;3.88;1.27;;;;;;;;;;5032284;28;20069;-75
2021/08/19 01:15:47;;;;;;;3.03;1.20;;;;;;;;;;5025183;28;20065;-75
2021/08/19 01:18:14;;;;;;;3.05;1.30;;;;;;;;;;5021715;28;20413;-75
2021/08/19 01:20:40;;;;;;;3.50;1.50;;;;;;;;;;5021225;28;20088;-75
2021/08/19 01:23:07;;;;;;;2.90;1.25;;;;;;;;;;5022763;28;20059;-75
2021/08/19 01:25:33;;;;;;;3.70;1.38;;;;;;;;;;5019848;28;20073;-74
2021/08/19 01:27:59;;;;;;;1.60;1.00;;;;;;;;;;5018936;28;20473;-73
2021/08/19 01:30:26;;;;;;;3.25;1.10;;;;;;;;;;5016994;28;20056;-75
2021/08/19 01:32:53;;;;;;;3.83;0.95;;;;;;;;;;5019877;28;20072;-76
2021/08/19 01:35:24;;;;;;;3.75;1.33;;;;;;;;;;5019478;28;20069;-75
2021/08/19 01:37:51;;;;;;;2.37;1.30;;;;;;;;;;5027289;28;20061;-76
2021/08/19 01:40:17;;;;;;;2.35;1.00;;;;;;;;;;5019199;28;20502;-76
2021/08/19 01:42:44;;;;;;;2.97;1.02;;;;;;;;;;5013160;28;20058;-75
2021/08/19 01:45:11;;;;;;;3.08;1.00;;;;;;;;;;5015136;28;20455;-76
2021/08/19 01:47:38;;;;;;;2.70;1.05;;;;;;;;;;5025286;28;20658;-75
2021/08/19 01:50:05;;;;;;;2.67;0.90;;;;;;;;;;5018998;28;20061;-75
2021/08/19 01:52:31;;;;;;;2.00;0.90;;;;;;;;;;5017478;28;20433;-75
2021/08/19 01:54:57;;;;;;;3.60;1.17;;;;;;;;;;5018959;28;20065;-73
2021/08/19 01:57:24;;;;;;;3.17;0.93;;;;;;;;;;5034644;28;20158;-78
2021/08/19 01:59:51;;;;;;;2.72;1.00;;;;;;;;;;5022914;28;20095;-75
2021/08/19 02:02:17;;;;;;;4.07;1.45;;;;;;;;;;5019245;28;20451;-75
2021/08/19 02:04:44;;;;;;;2.40;1.00;;;;;;;;;;5010645;28;20124;-74
2021/08/19 02:07:10;;;;;;;3.63;1.00;;;;;;;;;;4993550;28;22366;-75
2021/08/19 02:09:37;;;;;;;2.80;1.25;;;;;;;;;;5004210;28;20047;-75
2021/08/19 02:12:04;;;;;;;2.60;1.10;;;;;;;;;;4997617;28;20076;-74
2021/08/19 02:14:30;;;;;;;2.08;0.90;;;;;;;;;;5013468;28;20112;-76
2021/08/19 02:16:56;;;;;;;2.80;0.93;;;;;;;;;;5014030;28;20061;-75
2021/08/19 02:19:23;;;;;;;3.50;1.17;;;;;;;;;;5018725;28;20069;-75
2021/08/19 02:21:49;;;;;;;2.10;0.95;;;;;;;;;;5009397;28;20498;-75
2021/08/19 02:24:16;;;;;;;2.88;1.17;;;;;;;;;;5018579;28;20065;-75
2021/08/19 02:26:42;;;;;;;1.88;1.05;;;;;;;;;;5022793;28;20068;-75
2021/08/19 02:29:08;;;;;;;3.17;1.20;;;;;;;;;;5018821;28;20068;-75
2021/08/19 02:31:40;;;;;;;3.58;1.20;;;;;;;;;;5016045;28;20087;-75
2021/08/19 02:34:07;;;;;;;3.55;1.05;;;;;;;;;;5013284;28;20077;-75
2021/08/19 02:36:33;;;;;;;2.40;1.00;;;;;;;;;;5019136;28;20065;-76
2021/08/19 02:39:00;;;;;;;2.75;0.85;;;;;;;;;;5020479;28;20124;-75
2021/08/19 02:41:28;;;;;;;2.45;1.10;;;;;;;;;;5012576;28;20057;-76
2021/08/19 02:43:55;;;;;;;4.07;1.35;;;;;;;;;;5016421;28;20119;-76
2021/08/19 02:46:21;;;;;;;2.28;0.70;;;;;;;;;;5017718;28;20512;-76
2021/08/19 02:48:48;;;;;;;3.28;1.10;;;;;;;;;;5010821;28;20104;-75
2021/08/19 02:51:14;;;;;;;2.90;1.23;;;;;;;;;;5020751;28;20057;-74
2021/08/19 02:53:40;;;;;;;2.00;0.90;;;;;;;;;;5020935;28;20062;-75
2021/08/19 02:56:07;;;;;;;2.58;1.00;;;;;;;;;;5028720;28;20049;-75
2021/08/19 02:58:33;;;;;;;2.15;1.10;;;;;;;;;;5019427;28;20076;-73
2021/08/19 03:01:00;;;;;;;2.70;1.20;;;;;;;;;;5017747;28;20584;-75
2021/08/19 03:03:26;;;;;;;3.33;1.05;;;;;;;;;;5014081;28;20075;-75
2021/08/19 03:05:52;;;;;;;2.20;0.90;;;;;;;;;;5021997;28;20512;-75
2021/08/19 03:08:19;;;;;;;2.70;0.93;;;;;;;;;;5008239;28;20107;-75
2021/08/19 03:10:45;;;;;;;3.15;1.10;;;;;;;;;;5011979;28;20061;-75
2021/08/19 03:13:12;;;;;;;2.20;1.10;;;;;;;;;;5020684;28;20758;-74
2021/08/19 03:15:38;;;;;;;2.95;0.90;;;;;;;;;;5020548;28;20489;-75
2021/08/19 03:18:04;;;;;;;2.13;0.73;;;;;;;;;;5023133;28;20143;-73
2021/08/19 03:20:31;;;;;;;3.08;1.10;;;;;;;;;;5021042;28;20060;-75
2021/08/19 03:22:58;;;;;;;2.03;0.77;;;;;;;;;;5029595;28;20076;-75
2021/08/19 03:25:25;;;;;;;3.13;1.08;;;;;;;;;;5014182;28;20060;-74
2021/08/19 03:27:57;;;;;;;2.97;0.82;;;;;;;;;;5017271;28;20068;-74
2021/08/19 03:30:24;;;;;;;4.03;1.90;;;;;;;;;;5022889;28;20049;-74
2021/08/19 03:32:50;;;;;;;2.75;0.80;;;;;;;;;;5019126;28;20070;-75
2021/08/19 03:35:16;;;;;;;2.92;0.85;;;;;;;;;;5021015;28;20069;-75
2021/08/19 03:37:43;;;;;;;2.30;0.82;;;;;;;;;;5024636;28;20432;-76
2021/08/19 03:40:09;;;;;;;3.88;0.90;;;;;;;;;;5024334;28;20061;-76
2021/08/19 03:42:37;;;;;;;2.28;0.75;;;;;;;;;;5014159;28;20065;-76
2021/08/19 03:45:05;;;;;;;2.83;1.10;;;;;;;;;;5023212;28;20079;-77
2021/08/19 03:47:32;;;;;;;3.60;0.95;;;;;;;;;;5021732;28;20062;-76
2021/08/19 03:49:58;;;;;;;2.53;1.00;;;;;;;;;;5015666;28;20061;-75
2021/08/19 03:52:24;;;;;;;2.35;0.70;;;;;;;;;;5014819;28;20057;-74
2021/08/19 03:54:51;;;;;;;2.45;0.85;;;;;;;;;;5012182;28;20077;-74
2021/08/19 03:57:17;;;;;;;2.42;1.00;;;;;;;;;;5022408;28;20054;-74
2021/08/19 03:59:44;;;;;;;2.75;1.20;;;;;;;;;;5016171;28;20083;-75
2021/08/19 04:02:10;;;;;;;2.08;0.80;;;;;;;;;;5015524;28;20444;-73
2021/08/19 04:04:36;;;;;;;2.55;0.93;;;;;;;;;;5015567;28;20064;-73
2021/08/19 04:07:03;;;;;;;1.70;0.90;;;;;;;;;;5011914;28;20634;-74
2021/08/19 04:09:29;;;;;;;2.53;0.82;;;;;;;;;;5034007;28;20079;-75
2021/08/19 04:11:56;;;;;;;3.63;1.30;;;;;;;;;;5015970;28;20045;-75
2021/08/19 04:14:22;;;;;;;10.60;2.28;;;;;;;;;;5015941;28;20056;-75
2021/08/19 04:16:48;;;;;;;11.35;2.92;;;;;;;;;;5010602;28;20052;-74
2021/08/19 04:19:15;;;;;;;12.80;2.90;;;;;;;;;;5012204;28;20548;-75
2021/08/19 04:21:41;;;;;;;12.15;2.90;;;;;;;;;;5013149;28;20070;-75
2021/08/19 04:24:08;;;;;;;8.40;2.55;;;;;;;;;;5010956;28;20571;-76
2021/08/19 04:26:34;;;;;;;8.35;2.50;;;;;;;;;;5026850;28;20072;-75
2021/08/19 04:29:00;;;;;;;12.85;2.40;;;;;;;;;;5016802;28;20062;-75
2021/08/19 04:31:27;;;;;;;8.43;2.30;;;;;;;;;;5013976;28;20068;-74
2021/08/19 04:33:53;;;;;;;11.40;2.15;;;;;;;;;;5014144;28;20075;-75
2021/08/19 04:36:19;;;;;;;6.22;2.00;;;;;;;;;;5020142;28;20692;-76
2021/08/19 04:38:46;;;;;;;7.75;2.13;;;;;;;;;;5009425;28;20053;-75
2021/08/19 04:41:12;;;;;;;8.07;2.15;;;;;;;;;;5018057;28;20507;-75
2021/08/19 04:43:39;;;;;;;10.02;2.28;;;;;;;;;;5014828;28;20056;-74
2021/08/19 04:46:05;;;;;;;6.30;1.83;;;;;;;;;;5024207;28;20570;-75
2021/08/19 04:48:31;;;;;;;5.07;1.58;;;;;;;;;;5021119;28;20041;-75
2021/08/19 04:50:58;;;;;;;7.90;2.58;;;;;;;;;;5023998;28;20069;-74
2021/08/19 04:53:24;;;;;;;8.40;2.10;;;;;;;;;;5017371;28;20443;-75
2021/08/19 04:55:51;;;;;;;9.38;2.30;;;;;;;;;;5014422;28;20068;-75
2021/08/19 04:58:17;;;;;;;7.20;1.60;;;;;;;;;;5015482;28;20061;-76
2021/08/19 05:00:43;;;;;;;5.72;1.85;;;;;;;;;;5019804;28;20123;-75
2021/08/19 05:03:10;;;;;;;9.35;2.20;;;;;;;;;;5025002;28;20076;-74
2021/08/19 05:05:36;;;;;;;7.05;1.95;;;;;;;;;;5017400;28;20068;-77
2021/08/19 05:08:03;;;;;;;6.72;1.88;;;;;;;;;;5023184;28;20130;-76
2021/08/19 05:10:29;;;;;;;7.18;1.45;;;;;;;;;;5012368;28;20070;-75
2021/08/19 05:12:56;;;;;;;5.80;1.67;;;;;;;;;;5017078;28;20030;-77
2021/08/19 05:15:22;;;;;;;5.45;1.70;;;;;;;;;;5019852;28;20068;-76
2021/08/19 05:17:49;;;;;;;7.88;1.63;;;;;;;;;;5032198;28;20068;-76
2021/08/19 05:20:15;;;;;;;5.75;1.50;;;;;;;;;;5032684;28;20616;-76
2021/08/19 05:22:42;;;;;;;6.97;1.60;;;;;;;;;;5013228;28;20163;-75
2021/08/19 05:25:08;;;;;;;3.40;1.35;;;;;;;;;;5018527;28;20067;-75
2021/08/19 05:27:34;;;;;;;4.60;1.50;;;;;;;;;;5019047;28;20076;-84
2021/08/19 05:30:01;;;;;;;4.65;1.63;;;;;;;;;;5017411;28;20069;-80
2021/08/19 05:32:27;;;;;;;5.03;1.63;;;;;;;;;;5006091;28;20135;-81
2021/08/19 05:34:54;;;;;;;6.63;1.42;;;;;;;;;;5011342;28;20566;-81
2021/08/19 05:37:20;;;;;;;5.30;1.50;;;;;;;;;;5023018;28;20454;-82
2021/08/19 05:39:46;;;;;;;7.20;1.35;;;;;;;;;;5018228;28;20069;-81
2021/08/19 05:42:13;;;;;;;4.68;1.40;;;;;;;;;;5027753;28;20590;-82
2021/08/19 05:44:39;;;;;;;5.38;1.65;;;;;;;;;;5016840;28;20068;-82
2021/08/19 05:47:06;;;;;;;5.88;1.60;;;;;;;;;;5008925;28;20092;-81
2021/08/19 05:49:40;;;;;;;6.13;1.30;;;;;;;;;;5034667;28;20161;-80
2021/08/19 05:52:07;;;;;;;3.65;1.60;;;;;;;;;;5022706;28;20457;-82
2021/08/19 05:54:35;;;;;;;5.75;1.95;;;;;;;;;;5024421;28;20053;-81
2021/08/19 05:57:01;;;;;;;2.85;1.25;;;;;;;;;;5019431;28;20057;-82
2021/08/19 05:59:28;;;;;;;4.20;1.30;;;;;;;;;;5019864;28;20049;-84
2021/08/19 06:01:54;;;;;;;7.13;1.38;;;;;;;;;;5025954;28;20114;-81
2021/08/19 06:04:21;;;;;;;6.63;1.55;;;;;;;;;;5009466;28;20064;-81
2021/08/19 06:06:47;;;;;;;3.88;1.10;;;;;;;;;;5010564;28;20046;-82
2021/08/19 06:09:14;;;;;;;3.75;1.20;;;;;;;;;;5015906;28;20070;-81
2021/08/19 06:11:41;;;;;;;4.68;1.33;;;;;;;;;;5011843;28;20072;-82
2021/08/19 06:14:07;;;;;;;3.28;1.00;;;;;;;;;;5009724;28;20510;-81
2021/08/19 06:16:34;;;;;;;2.97;1.20;;;;;;;;;;5016603;28;20061;-81
2021/08/19 06:19:00;;;;;;;4.28;1.30;;;;;;;;;;5015764;28;20057;-82
2021/08/19 06:21:27;;;;;;;3.97;1.10;;;;;;;;;;5012222;28;20513;-81
2021/08/19 06:23:53;;;;;;;4.03;1.25;;;;;;;;;;5013159;28;20512;-81
2021/08/19 06:26:20;;;;;;;4.60;1.33;;;;;;;;;;5021648;28;20089;-82
2021/08/19 06:28:46;;;;;;;2.90;1.13;;;;;;;;;;5018981;28;20069;-80
2021/08/19 06:31:12;;;;;;;3.78;1.20;;;;;;;;;;5014528;28;20064;-81
2021/08/19 06:33:39;;;;;;;3.50;1.08;;;;;;;;;;5010356;28;20069;-81
2021/08/19 06:36:07;;;;;;;3.45;1.20;;;;;;;;;;5011427;28;20064;-83
2021/08/19 06:38:33;;;;;;;4.70;1.30;;;;;;;;;;5011206;28;20855;-82
2021/08/19 06:41:00;;;;;;;5.07;1.38;;;;;;;;;;5021330;28;20045;-82
2021/08/19 06:43:26;;;;;;;3.47;1.20;;;;;;;;;;5011651;28;20926;-81
2021/08/19 06:45:52;;;;;;;3.60;0.98;;;;;;;;;;5016196;28;20061;-81
2021/08/19 06:48:19;;;;;;;3.53;1.08;;;;;;;;;;5031202;28;20065;-82
2021/08/19 06:50:45;;;;;;;4.38;1.27;;;;;;;;;;5026221;28;20063;-80
2021/08/19 06:53:12;;;;;;;3.75;0.90;;;;;;;;;;5027719;28;20056;-82
2021/08/19 06:55:38;;;;;;;3.88;1.10;;;;;;;;;;5023908;28;20053;-81
2021/08/19 06:58:04;;;;;;;3.40;1.05;;;;;;;;;;5024473;28;20057;-82
2021/08/19 07:00:31;;;;;;;5.05;1.27;;;;;;;;;;5030861;28;20456;-82
2021/08/19 07:02:57;;;;;;;2.65;0.80;;;;;;;;;;5017915;28;20497;-81
2021/08/19 07:05:24;;;;;;;4.72;1.00;;;;;;;;;;5022303;28;20076;-81
2021/08/19 07:07:54;;;;;;;12.93;1.10;;;;;;;;;;5030557;28;20063;-82
2021/08/19 07:10:21;;;;;;;3.13;1.10;;;;;;;;;;5024253;28;20065;-82
2021/08/19 07:12:47;;;;;;;5.07;1.20;;;;;;;;;;5016304;28;20058;-81
2021/08/19 07:15:13;;;;;;;3.33;1.10;;;;;;;;;;5018341;28;20041;-82
2021/08/19 07:17:40;;;;;;;3.45;1.20;;;;;;;;;;5016979;28;20176;-82
2021/08/19 07:20:07;;;;;;;4.43;1.13;;;;;;;;;;5028140;28;20069;-83
2021/08/19 07:22:33;;;;;;;2.65;0.98;;;;;;;;;;5029506;28;20069;-82
2021/08/19 07:24:59;;;;;;;2.95;0.88;;;;;;;;;;5020159;28;20099;-82
2021/08/19 07:27:26;;;;;;;5.53;1.10;;;;;;;;;;5024960;28;20045;-82
2021/08/19 07:29:52;;;;;;;2.58;0.95;;;;;;;;;;5025491;28;20076;-82
2021/08/19 07:32:20;;;;;;;3.55;0.95;;;;;;;;;;5038147;28;20061;-80
2021/08/19 07:34:49;;;;;;;4.97;1.15;;;;;;;;;;5022610;28;20645;-82
2021/08/19 07:37:16;;;;;;;2.95;0.95;;;;;;;;;;5026815;28;20076;-80
2021/08/19 07:39:42;;;;;;;4.28;1.00;;;;;;;;;;5033274;28;20061;-82
2021/08/19 07:42:09;;;;;;;3.97;1.10;;;;;;;;;;5020966;28;20126;-81
2021/08/19 07:44:35;;;;;;;3.97;1.27;;;;;;;;;;5020358;28;20057;-82
2021/08/19 07:47:01;;;;;;;3.53;1.00;;;;;;;;;;5028365;28;20494;-81
2021/08/19 07:49:28;;;;;;;3.88;1.25;;;;;;;;;;5021379;28;20615;-80
2021/08/19 07:51:54;;;;;;;4.25;1.20;;;;;;;;;;5023370;28;20084;-81
2021/08/19 07:54:21;;;;;;;3.83;0.98;;;;;;;;;;5013933;28;20065;-81
2021/08/19 07:56:47;;;;;;;3.35;1.00;;;;;;;;;;5021631;28;20898;-82
2021/08/19 07:59:14;;;;;;;3.25;1.10;;;;;;;;;;5017220;28;20049;-82
2021/08/19 08:01:40;;;;;;;4.15;1.15;;;;;;;;;;5024317;28;20053;-81
2021/08/19 08:04:09;;;;;;;4.05;1.30;;;;;;;;;;5021850;28;20085;-81
2021/08/19 08:06:36;;;;;;;5.20;1.10;;;;;;;;;;5035136;28;20504;-82
2021/08/19 08:09:04;;;;;;;3.88;1.30;;;;;;;;;;5020345;28;20080;-81
2021/08/19 08:11:30;;;;;;;4.85;1.35;;;;;;;;;;5026323;28;20053;-81
2021/08/19 08:13:57;;;;;;;2.97;1.10;;;;;;;;;;5021809;28;20061;-81
2021/08/19 08:16:24;;;;;;;4.10;0.98;;;;;;;;;;5025140;28;20061;-81
2021/08/19 08:18:50;;;;;;;5.38;1.00;;;;;;;;;;5020775;28;20116;-82
2021/08/19 08:21:16;;;;;;;6.32;1.23;;;;;;;;;;5029807;28;20053;-81
2021/08/19 08:23:43;;;;;;;9.68;1.70;;;;;;;;;;5022039;28;20502;-82
2021/08/19 08:26:13;;;;;;;1.90;0.90;;;;;;;;;;5022287;28;20053;-83
2021/08/19 08:28:39;;;;;;;4.28;1.20;;;;;;;;;;5019888;28;20606;-82
2021/08/19 08:31:07;;;;;;;4.57;1.00;;;;;;;;;;5032226;28;20744;-84
2021/08/19 08:33:33;;;;;;;4.32;1.30;;;;;;;;;;5030871;28;20134;-82
2021/08/19 08:36:00;;;;;;;5.07;1.20;;;;;;;;;;5032740;28;20065;-81
2021/08/19 08:38:27;;;;;;;5.13;1.40;;;;;;;;;;5020988;28;20782;-82
2021/08/19 08:40:54;;;;;;;4.88;1.58;;;;;;;;;;5021079;28;20069;-81
2021/08/19 08:43:21;;;;;;;4.43;1.67;;;;;;;;;;5012320;28;20073;-81
2021/08/19 08:45:49;;;;;;;5.18;1.30;;;;;;;;;;5020521;28;20136;-81
2021/08/19 08:48:16;;;;;;;6.53;1.30;;;;;;;;;;5021705;28;20044;-82
2021/08/19 08:50:45;;;;;;;4.50;1.20;;;;;;;;;;5035689;28;20087;-82
2021/08/19 08:53:12;;;;;;;5.43;1.48;;;;;;;;;;5018360;28;20322;-82
2021/08/19 08:55:39;;;;;;;3.20;1.30;;;;;;;;;;5016948;28;20529;-82
2021/08/19 08:58:05;;;;;;;4.20;1.70;;;;;;;;;;5016626;28;20048;-82
2021/08/19 09:00:32;;;;;;;3.88;1.08;;;;;;;;;;5010517;28;20108;-81
2021/08/19 09:02:58;;;;;;;6.45;1.50;;;;;;;;;;5022099;28;20060;-80
2021/08/19 09:05:25;;;;;;;4.63;1.42;;;;;;;;;;5037441;28;20052;-82
2021/08/19 09:07:52;;;;;;;6.88;1.85;;;;;;;;;;5022137;28;20493;-81
2021/08/19 09:10:20;;;;;;;4.80;1.42;;;;;;;;;;5022867;28;20065;-82
2021/08/19 09:12:46;;;;;;;4.47;1.48;;;;;;;;;;5021154;28;20099;-80
2021/08/19 09:15:16;;;;;;;3.58;1.33;;;;;;;;;;5020489;28;20173;-83
2021/08/19 09:17:44;;;;;;;5.53;1.40;;;;;;;;;;5011015;28;20103;-83
2021/08/19 09:20:11;;;;;;;4.68;1.50;;;;;;;;;;5025297;28;20057;-82
2021/08/19 09:22:51;;;;;;;2.95;1.20;;;;;;;;;;5027314;28;20064;-82
2021/08/19 09:25:23;;;;;;;5.60;1.40;;;;;;;;;;5019359;28;22398;-82
2021/08/19 09:28:08;;;;;;;3.55;1.20;;;;;;;;;;5022230;28;20069;-81
2021/08/19 09:30:34;;;;;;;4.35;1.27;;;;;;;;;;5015227;28;20046;-82
2021/08/19 09:33:04;;;;;;;5.18;1.25;;;;;;;;;;5015369;28;20061;-82
2021/08/19 09:35:31;;;;;;;5.28;1.10;;;;;;;;;;5015832;28;20159;-82
2021/08/19 09:37:58;;;;;;;5.60;1.42;;;;;;;;;;5017369;28;20060;-82
2021/08/19 09:40:24;;;;;;;3.75;1.17;;;;;;;;;;5029838;28;20060;-82
2021/08/19 09:42:51;;;;;;;2.80;0.90;;;;;;;;;;5015061;28;20500;-82
2021/08/19 09:45:18;;;;;;;4.07;1.15;;;;;;;;;;5019836;28;20528;-80
2021/08/19 09:47:45;;;;;;;5.22;1.40;;;;;;;;;;5013850;28;20065;-82
2021/08/19 09:50:11;;;;;;;4.68;1.13;;;;;;;;;;5028403;28;20151;-81
2021/08/19 09:52:38;;;;;;;3.65;1.30;;;;;;;;;;5014267;28;20053;-82
2021/08/19 09:55:20;;;;;;;2.65;1.02;;;;;;;;;;5021477;28;20065;-85
2021/08/19 09:57:46;;;;;;;8.35;1.75;;;;;;;;;;5015551;28;20137;-80
2021/08/19 10:00:30;;;;;;;4.65;1.10;;;;;;;;;;5020554;28;20148;-82
2021/08/19 10:02:57;;;;;;;4.68;1.15;;;;;;;;;;5015552;28;20068;-82
2021/08/19 10:05:23;;;;;;;6.40;1.40;;;;;;;;;;5010912;28;20115;-82
2021/08/19 10:07:50;;;;;;;3.47;1.27;;;;;;;;;;5022066;28;20049;-81
2021/08/19 10:10:16;;;;;;;8.15;1.50;;;;;;;;;;5028569;28;20128;-81
2021/08/19 10:12:43;;;;;;;4.72;1.58;;;;;;;;;;5023506;28;20061;-82
2021/08/19 10:15:10;;;;;;;4.65;1.45;;;;;;;;;;5022571;28;20057;-82
2021/08/19 10:17:38;;;;;;;4.47;1.48;;;;;;;;;;5018956;28;20057;-82
2021/08/19 10:20:06;;;;;;;5.55;1.38;;;;;;;;;;5016734;28;20037;-86
2021/08/19 10:22:33;;;;;;;3.80;1.35;;;;;;;;;;5014162;28;20426;-83
2021/08/19 10:25:00;;;;;;;4.47;1.35;;;;;;;;;;5019419;28;20626;-82
2021/08/19 10:27:27;;;;;;;5.40;1.30;;;;;;;;;;5027773;28;20053;-81
2021/08/19 10:30:04;;;;;;;4.43;1.35;;;;;;;;;;5017234;28;20046;-82
2021/08/19 10:32:31;;;;;;;3.45;1.20;;;;;;;;;;5024689;28;20122;-82
2021/08/19 10:34:57;;;;;;;3.97;1.10;;;;;;;;;;5019009;28;20546;-82
2021/08/19 10:37:44;;;;;;;4.18;1.23;;;;;;;;;;5029627;28;20135;-80
2021/08/19 10:40:31;;;;;;;4.45;1.23;;;;;;;;;;5018933;28;20161;-79
2021/08/19 10:42:59;;;;;;;3.85;1.13;;;;;;;;;;5005128;28;20060;-80
2021/08/19 10:45:28;;;;;;;3.97;1.55;;;;;;;;;;5017608;28;20057;-78
2021/08/19 10:47:55;;;;;;;4.28;1.30;;;;;;;;;;5017932;28;20130;-79
2021/08/19 10:50:29;;;;;;;3.70;1.27;;;;;;;;;;5030777;28;20061;-79
2021/08/19 10:53:00;;;;;;;5.03;1.50;;;;;;;;;;5022621;28;20057;-79
2021/08/19 10:55:38;;;;;;;4.40;1.20;;;;;;;;;;5014791;28;20120;-79
2021/08/19 10:58:21;;;;;;;5.95;1.58;;;;;;;;;;5020399;28;20058;-79
2021/08/19 11:00:47;;;;;;;8.23;3.72;;;;;;;;;;5022508;28;20065;-80
2021/08/19 11:03:32;;;;;;;14.05;11.30;;;;;;;;;;5021829;28;20111;-79
2021/08/19 11:05:59;;;;;;;7.80;4.93;;;;;;;;;;5016267;28;20065;-78
2021/08/19 11:08:36;;;;;;;7.47;4.50;;;;;;;;;;5017776;28;20505;-79
2021/08/19 11:11:03;;;;;;;8.15;3.90;;;;;;;;;;5018159;28;20084;-78
2021/08/19 11:13:31;;;;;;;8.70;4.80;;;;;;;;;;5016564;28;20057;-79
2021/08/19 11:15:58;;;;;;;9.18;5.18;;;;;;;;;;5017110;28;20103;-80
2021/08/19 11:18:25;;;;;;;8.70;4.40;;;;;;;;;;5024668;28;20458;-80
2021/08/19 11:20:52;;;;;;;8.35;4.72;;;;;;;;;;5017621;28;20060;-79
2021/08/19 11:23:18;;;;;;;7.78;4.03;;;;;;;;;;5017451;28;20080;-79
2021/08/19 11:25:46;;;;;;;8.95;3.90;;;;;;;;;;5019564;28;20057;-80
2021/08/19 11:28:19;;;;;;;7.75;4.20;;;;;;;;;;5027329;28;20049;-80
2021/08/19 11:30:47;;;;;;;8.38;3.72;;;;;;;;;;5030586;28;20102;-79
2021/08/19 11:33:14;;;;;;;9.73;3.55;;;;;;;;;;5012667;28;22571;-79
2021/08/19 11:35:41;;;;;;;7.15;3.60;;;;;;;;;;5027194;28;20061;-80
2021/08/19 11:38:18;;;;;;;8.63;3.40;;;;;;;;;;5018015;28;20504;-80
2021/08/19 11:40:45;;;;;;;7.38;3.17;;;;;;;;;;5036377;28;20118;-79
2021/08/19 11:43:31;;;;;;;5.82;2.92;;;;;;;;;;5015690;28;20243;-79
2021/08/19 11:46:10;;;;;;;6.20;3.00;;;;;;;;;;5013040;28;20501;-81
2021/08/19 11:48:38;;;;;;;6.28;2.78;;;;;;;;;;5025689;28;20072;-77
2021/08/19 11:51:06;;;;;;;5.03;2.50;;;;;;;;;;5022221;28;20087;-78
2021/08/19 11:53:32;;;;;;;6.90;2.65;;;;;;;;;;5020311;28;20108;-78
2021/08/19 11:56:12;;;;;;;5.43;2.10;;;;;;;;;;5023912;28;20104;-78
2021/08/19 11:58:39;;;;;;;6.28;2.33;;;;;;;;;;5007829;28;20090;-78
2021/08/19 12:01:06;;;;;;;6.90;2.45;;;;;;;;;;5012641;28;20057;-78
2021/08/19 12:03:38;;;;;;;5.93;2.20;;;;;;;;;;5022574;28;20053;-79
2021/08/19 12:06:06;;;;;;;4.53;1.85;;;;;;;;;;5024489;28;20471;-79
2021/08/19 12:08:34;;;;;;;4.03;2.30;;;;;;;;;;5027453;28;20067;-78
2021/08/19 12:11:01;;;;;;;6.72;1.95;;;;;;;;;;5024973;28;20068;-79
2021/08/19 12:13:28;;;;;;;4.22;1.83;;;;;;;;;;5026542;28;20107;-77
2021/08/19 12:15:55;;;;;;;4.57;2.13;;;;;;;;;;5029856;28;20099;-80
2021/08/19 12:18:25;;;;;;;3.75;1.80;;;;;;;;;;5026003;28;20038;-78
2021/08/19 12:20:52;;;;;;;4.50;1.80;;;;;;;;;;5020946;28;20527;-79
2021/08/19 12:23:20;;;;;;;4.65;1.50;;;;;;;;;;5025187;28;20057;-78
2021/08/19 12:25:47;;;;;;;6.95;1.85;;;;;;;;;;5018428;28;20115;-78
2021/08/19 12:28:13;;;;;;;5.45;1.88;;;;;;;;;;5012874;28;20493;-78
2021/08/19 12:30:54;;;;;;;4.72;1.60;;;;;;;;;;5026107;28;20076;-78
2021/08/19 12:33:29;;;;;;;6.82;1.52;;;;;;;;;;5005990;28;21155;-78
2021/08/19 12:36:09;;;;;;;3.90;1.70;;;;;;;;;;5021943;28;20077;-78
2021/08/19 12:38:35;;;;;;;3.60;1.30;;;;;;;;;;5027122;28;20509;-78
2021/08/19 12:41:12;;;;;;;5.60;1.50;;;;;;;;;;5009891;28;20073;-79
2021/08/19 12:43:39;;;;;;;4.53;1.60;;;;;;;;;;5013435;28;20557;-79
2021/08/19 12:46:07;;;;;;;4.47;1.55;;;;;;;;;;5026585;28;20622;-78
2021/08/19 12:48:35;;;;;;;6.18;1.30;;;;;;;;;;5008523;28;20061;-77
2021/08/19 12:51:27;;;;;;;4.63;1.38;;;;;;;;;;5023341;28;20442;-77
2021/08/19 12:54:00;;;;;;;4.88;1.30;;;;;;;;;;5005595;28;20138;-79
2021/08/19 12:56:26;;;;;;;3.80;1.30;;;;;;;;;;5032705;28;20053;-79
2021/08/19 12:58:53;;;;;;;4.60;1.40;;;;;;;;;;5012558;28;20122;-80
2021/08/19 13:01:19;;;;;;;4.78;1.23;;;;;;;;;;5017380;28;20135;-81
2021/08/19 13:03:46;;;;;;;4.15;1.15;;;;;;;;;;5028055;28;20453;-79
2021/08/19 13:06:12;;;;;;;6.25;1.40;;;;;;;;;;5015653;28;20061;-80
2021/08/19 13:08:38;;;;;;;4.18;1.17;;;;;;;;;;5015623;28;20115;-80
2021/08/19 13:11:05;;;;;;;5.55;1.30;;;;;;;;;;5017410;28;20069;-80
2021/08/19 13:13:31;;;;;;;3.95;1.60;;;;;;;;;;5017610;28;20065;-80
2021/08/19 13:15:58;;;;;;;4.07;1.30;;;;;;;;;;5016073;28;20484;-80
2021/08/19 13:18:24;;;;;;;2.90;1.05;;;;;;;;;;5023355;28;20076;-80
2021/08/19 13:20:51;;;;;;;4.45;1.40;;;;;;;;;;5015997;28;20045;-80
2021/08/19 13:23:17;;;;;;;5.15;1.65;;;;;;;;;;5035689;28;20076;-79
2021/08/19 13:25:44;;;;;;;5.35;2.00;;;;;;;;;;5028992;28;20068;-79
2021/08/19 13:28:11;;;;;;;4.93;1.40;;;;;;;;;;5013288;28;20057;-79
2021/08/19 13:30:38;;;;;;;2.30;1.00;;;;;;;;;;5019386;28;20213;-78
2021/08/19 13:33:05;;;;;;;4.72;1.15;;;;;;;;;;5019280;28;20557;-79
2021/08/19 13:35:31;;;;;;;4.82;1.75;;;;;;;;;;5025799;28;20092;-80
2021/08/19 13:37:58;;;;;;;3.95;1.20;;;;;;;;;;5030072;28;20065;-79
2021/08/19 13:40:24;;;;;;;4.10;1.40;;;;;;;;;;5024101;28;20091;-78
2021/08/19 13:42:51;;;;;;;3.58;1.33;;;;;;;;;;5023833;28;20114;-78
2021/08/19 13:45:17;;;;;;;4.18;1.25;;;;;;;;;;5020137;28;20091;-78
2021/08/19 13:47:44;;;;;;;6.28;1.30;;;;;;;;;;5011417;28;20069;-79
2021/08/19 13:50:10;;;;;;;3.95;1.33;;;;;;;;;;5013439;28;20143;-77
2021/08/19 13:52:37;;;;;;;3.97;1.10;;;;;;;;;;5017076;28;20060;-78
2021/08/19 13:55:04;;;;;;;7.82;1.50;;;;;;;;;;5020931;28;20138;-78
2021/08/19 13:57:31;;;;;;;4.47;1.20;;;;;;;;;;5016175;28;20058;-78
2021/08/19 13:59:57;;;;;;;4.32;1.38;;;;;;;;;;5011504;28;20084;-78
2021/08/19 14:02:24;;;;;;;4.55;1.10;;;;;;;;;;5012268;28;20065;-79
2021/08/19 14:04:50;;;;;;;3.95;1.10;;;;;;;;;;5011845;28;20067;-78
2021/08/19 14:07:16;;;;;;;4.28;1.50;;;;;;;;;;5013648;28;20052;-77
2021/08/19 14:09:43;;;;;;;2.42;1.23;;;;;;;;;;5023889;28;20084;-79
2021/08/19 14:12:09;;;;;;;2.63;0.93;;;;;;;;;;5032179;28;20067;-77
2021/08/19 14:14:35;;;;;;;5.07;1.40;;;;;;;;;;5023965;28;20109;-77
2021/08/19 14:17:02;;;;;;;5.20;1.30;;;;;;;;;;5016096;28;20065;-78
2021/08/19 14:19:28;;;;;;;4.50;1.10;;;;;;;;;;5011956;28;20068;-79
2021/08/19 14:21:55;;;;;;;4.03;1.50;;;;;;;;;;5014944;28;20509;-79
2021/08/19 14:24:26;;;;;;;4.00;1.52;;;;;;;;;;5017540;28;20076;-79
2021/08/19 14:26:54;;;;;;;4.13;1.00;;;;;;;;;;5015299;28;20516;-81
2021/08/19 14:29:21;;;;;;;5.25;1.00;;;;;;;;;;5012592;28;20034;-79
2021/08/19 14:31:47;;;;;;;3.65;0.90;;;;;;;;;;5010181;28;20069;-78
2021/08/19 14:34:13;;;;;;;3.45;1.27;;;;;;;;;;5017464;28;21603;-78
2021/08/19 14:36:40;;;;;;;8.73;1.55;;;;;;;;;;5010241;28;20068;-76
2021/08/19 14:39:06;;;;;;;3.78;1.02;;;;;;;;;;5011785;28;20058;-78
2021/08/19 14:41:33;;;;;;;5.47;1.38;;;;;;;;;;5013802;28;20680;-77
2021/08/19 14:43:59;;;;;;;5.03;1.10;;;;;;;;;;5022725;28;20062;-77
2021/08/19 14:46:25;;;;;;;3.35;0.90;;;;;;;;;;5013344;28;20065;-80